sensor_id;sensor_type;location;lat;lon;timestamp;P1;durP1;ratioP1;P2;durP2;ratioP2
38338;SDS011;37117;50.050;19.924;2022-11-23T00:02:13;49.70;;;28.20;;
38338;SDS011;37117;50.050;19.924;2022-11-23T00:04:44;42.60;;;28.00;;
38338;SDS011;37117;50.050;19.924;2022-11-23T00:07:14;42.70;;;28.30;;
38338;SDS011;37117;50.050;19.924;2022-11-23T00:09:45;41.60;;;26.30;;
38338;SDS011;37117;50.050;19.924;2022-11-23T00:12:15;43.30;;;27.10;;
38338;SDS011;37117;50.050;19.924;2022-11-23T00:14:46;44.00;;;27.40;;
38338;SDS011;37117;50.050;19.924;2022-11-23T00:17:16;46.30;;;29.00;;
38338;SDS011;37117;50.050;19.924;2022-11-23T00:19:47;43.60;;;26.80;;
38338;SDS011;37117;50.050;19.924;2022-11-23T00:22:18;38.00;;;25.40;;
38338;SDS011;37117;50.050;19.924;2022-11-23T00:24:48;37.80;;;24.20;;
38338;SDS011;37117;50.050;19.924;2022-11-23T00:27:19;42.40;;;27.10;;
38338;SDS011;37117;50.050;19.924;2022-11-23T00:29:50;43.50;;;26.00;;
38338;SDS011;37117;50.050;19.924;2022-11-23T00:32:21;44.20;;;27.20;;
38338;SDS011;37117;50.050;19.924;2022-11-23T00:34:51;45.90;;;29.10;;
38338;SDS011;37117;50.050;19.924;2022-11-23T00:37:22;43.70;;;26.80;;
38338;SDS011;37117;50.050;19.924;2022-11-23T00:39:53;43.90;;;25.50;;
38338;SDS011;37117;50.050;19.924;2022-11-23T00:42:23;42.70;;;25.60;;
38338;SDS011;37117;50.050;19.924;2022-11-23T00:44:54;41.30;;;25.50;;
38338;SDS011;37117;50.050;19.924;2022-11-23T00:47:25;42.60;;;26.60;;
38338;SDS011;37117;50.050;19.924;2022-11-23T00:49:55;44.00;;;28.00;;
38338;SDS011;37117;50.050;19.924;2022-11-23T00:52:26;46.30;;;28.80;;
38338;SDS011;37117;50.050;19.924;2022-11-23T00:54:56;38.20;;;23.90;;
38338;SDS011;37117;50.050;19.924;2022-11-23T00:57:28;44.10;;;27.60;;
38338;SDS011;37117;50.050;19.924;2022-11-23T00:59:59;44.00;;;28.10;;
38338;SDS011;37117;50.050;19.924;2022-11-23T01:02:29;43.20;;;26.20;;
38338;SDS011;37117;50.050;19.924;2022-11-23T01:05:00;42.70;;;27.10;;
38338;SDS011;37117;50.050;19.924;2022-11-23T01:07:31;44.20;;;27.00;;
38338;SDS011;37117;50.050;19.924;2022-11-23T01:10:02;45.30;;;30.40;;
38338;SDS011;37117;50.050;19.924;2022-11-23T01:12:34;44.80;;;27.50;;
38338;SDS011;37117;50.050;19.924;2022-11-23T01:15:05;41.90;;;27.20;;
38338;SDS011;37117;50.050;19.924;2022-11-23T01:17:36;43.10;;;26.00;;
38338;SDS011;37117;50.050;19.924;2022-11-23T01:20:08;42.90;;;27.40;;
38338;SDS011;37117;50.050;19.924;2022-11-23T01:22:41;41.00;;;26.70;;
38338;SDS011;37117;50.050;19.924;2022-11-23T01:25:11;44.10;;;25.60;;
38338;SDS011;37117;50.050;19.924;2022-11-23T01:27:42;43.80;;;28.40;;
38338;SDS011;37117;50.050;19.924;2022-11-23T01:30:14;51.00;;;30.00;;
38338;SDS011;37117;50.050;19.924;2022-11-23T01:32:44;50.10;;;30.30;;
38338;SDS011;37117;50.050;19.924;2022-11-23T01:35:15;44.60;;;30.00;;
38338;SDS011;37117;50.050;19.924;2022-11-23T01:37:46;48.90;;;28.50;;
38338;SDS011;37117;50.050;19.924;2022-11-23T01:40:17;45.10;;;26.60;;
38338;SDS011;37117;50.050;19.924;2022-11-23T01:42:50;43.00;;;27.40;;
38338;SDS011;37117;50.050;19.924;2022-11-23T01:48:10;43.20;;;28.90;;
38338;SDS011;37117;50.050;19.924;2022-11-23T01:50:42;46.50;;;29.90;;
38338;SDS011;37117;50.050;19.924;2022-11-23T01:53:13;44.00;;;27.90;;
38338;SDS011;37117;50.050;19.924;2022-11-23T01:55:44;49.90;;;30.60;;
38338;SDS011;37117;50.050;19.924;2022-11-23T01:58:17;42.50;;;26.70;;
38338;SDS011;37117;50.050;19.924;2022-11-23T02:00:48;49.20;;;30.00;;
38338;SDS011;37117;50.050;19.924;2022-11-23T02:03:19;51.10;;;28.90;;
38338;SDS011;37117;50.050;19.924;2022-11-23T02:05:52;54.80;;;33.80;;
38338;SDS011;37117;50.050;19.924;2022-11-23T02:08:27;50.40;;;31.80;;
38338;SDS011;37117;50.050;19.924;2022-11-23T02:10:59;61.40;;;33.60;;
38338;SDS011;37117;50.050;19.924;2022-11-23T02:13:29;55.90;;;33.70;;
38338;SDS011;37117;50.050;19.924;2022-11-23T02:16:00;56.40;;;32.60;;
38338;SDS011;37117;50.050;19.924;2022-11-23T02:18:31;54.60;;;31.00;;
38338;SDS011;37117;50.050;19.924;2022-11-23T02:21:05;61.20;;;34.30;;
38338;SDS011;37117;50.050;19.924;2022-11-23T02:23:38;54.60;;;32.40;;
38338;SDS011;37117;50.050;19.924;2022-11-23T02:26:14;55.40;;;33.90;;
38338;SDS011;37117;50.050;19.924;2022-11-23T02:28:46;62.70;;;37.70;;
38338;SDS011;37117;50.050;19.924;2022-11-23T02:31:17;64.50;;;37.80;;
38338;SDS011;37117;50.050;19.924;2022-11-23T02:34:05;59.30;;;36.10;;
38338;SDS011;37117;50.050;19.924;2022-11-23T02:36:38;64.70;;;34.80;;
38338;SDS011;37117;50.050;19.924;2022-11-23T02:39:10;64.20;;;34.00;;
38338;SDS011;37117;50.050;19.924;2022-11-23T02:41:42;62.80;;;33.40;;
38338;SDS011;37117;50.050;19.924;2022-11-23T02:44:30;60.20;;;35.00;;
38338;SDS011;37117;50.050;19.924;2022-11-23T02:47:02;69.80;;;38.10;;
38338;SDS011;37117;50.050;19.924;2022-11-23T02:49:33;69.40;;;37.50;;
38338;SDS011;37117;50.050;19.924;2022-11-23T02:52:04;69.00;;;37.20;;
38338;SDS011;37117;50.050;19.924;2022-11-23T02:54:35;74.90;;;41.20;;
38338;SDS011;37117;50.050;19.924;2022-11-23T02:57:06;64.00;;;36.10;;
38338;SDS011;37117;50.050;19.924;2022-11-23T02:59:37;63.40;;;34.60;;
38338;SDS011;37117;50.050;19.924;2022-11-23T03:02:07;67.50;;;38.40;;
38338;SDS011;37117;50.050;19.924;2022-11-23T03:04:38;63.60;;;37.30;;
38338;SDS011;37117;50.050;19.924;2022-11-23T03:07:08;69.00;;;38.40;;
38338;SDS011;37117;50.050;19.924;2022-11-23T03:09:39;68.30;;;39.60;;
38338;SDS011;37117;50.050;19.924;2022-11-23T03:12:10;58.80;;;33.20;;
38338;SDS011;37117;50.050;19.924;2022-11-23T03:14:41;64.90;;;33.80;;
38338;SDS011;37117;50.050;19.924;2022-11-23T03:17:11;62.80;;;35.70;;
38338;SDS011;37117;50.050;19.924;2022-11-23T03:19:42;64.30;;;35.80;;
38338;SDS011;37117;50.050;19.924;2022-11-23T03:22:14;62.30;;;34.20;;
38338;SDS011;37117;50.050;19.924;2022-11-23T03:24:44;61.90;;;35.20;;
38338;SDS011;37117;50.050;19.924;2022-11-23T03:27:16;59.00;;;33.50;;
38338;SDS011;37117;50.050;19.924;2022-11-23T03:29:48;54.50;;;35.40;;
38338;SDS011;37117;50.050;19.924;2022-11-23T03:32:21;58.80;;;35.80;;
38338;SDS011;37117;50.050;19.924;2022-11-23T03:34:54;65.30;;;37.30;;
38338;SDS011;37117;50.050;19.924;2022-11-23T03:37:26;62.50;;;33.10;;
38338;SDS011;37117;50.050;19.924;2022-11-23T03:39:58;63.40;;;36.00;;
38338;SDS011;37117;50.050;19.924;2022-11-23T03:43:01;58.60;;;33.80;;
38338;SDS011;37117;50.050;19.924;2022-11-23T03:45:32;68.60;;;36.40;;
38338;SDS011;37117;50.050;19.924;2022-11-23T03:48:03;67.70;;;37.40;;
38338;SDS011;37117;50.050;19.924;2022-11-23T03:50:34;63.10;;;33.20;;
38338;SDS011;37117;50.050;19.924;2022-11-23T03:53:05;54.60;;;35.10;;
38338;SDS011;37117;50.050;19.924;2022-11-23T03:55:35;61.90;;;35.20;;
38338;SDS011;37117;50.050;19.924;2022-11-23T03:58:06;66.80;;;37.40;;
38338;SDS011;37117;50.050;19.924;2022-11-23T04:00:37;63.20;;;36.50;;
38338;SDS011;37117;50.050;19.924;2022-11-23T04:03:09;66.50;;;36.80;;
38338;SDS011;37117;50.050;19.924;2022-11-23T04:05:58;73.70;;;39.70;;
38338;SDS011;37117;50.050;19.924;2022-11-23T04:08:55;72.00;;;39.60;;
38338;SDS011;37117;50.050;19.924;2022-11-23T04:11:44;63.00;;;36.50;;
38338;SDS011;37117;50.050;19.924;2022-11-23T04:14:14;69.60;;;38.70;;
38338;SDS011;37117;50.050;19.924;2022-11-23T04:16:45;68.30;;;38.90;;
38338;SDS011;37117;50.050;19.924;2022-11-23T04:19:16;57.90;;;33.40;;
38338;SDS011;37117;50.050;19.924;2022-11-23T04:21:47;54.10;;;30.30;;
38338;SDS011;37117;50.050;19.924;2022-11-23T04:24:19;59.20;;;34.00;;
38338;SDS011;37117;50.050;19.924;2022-11-23T04:26:50;59.50;;;32.10;;
38338;SDS011;37117;50.050;19.924;2022-11-23T04:29:21;59.40;;;32.60;;
38338;SDS011;37117;50.050;19.924;2022-11-23T04:31:55;62.50;;;33.60;;
38338;SDS011;37117;50.050;19.924;2022-11-23T04:34:26;57.70;;;32.60;;
38338;SDS011;37117;50.050;19.924;2022-11-23T04:36:57;59.30;;;34.40;;
38338;SDS011;37117;50.050;19.924;2022-11-23T04:39:32;57.80;;;31.90;;
38338;SDS011;37117;50.050;19.924;2022-11-23T04:42:21;52.20;;;31.10;;
38338;SDS011;37117;50.050;19.924;2022-11-23T04:44:57;56.00;;;33.80;;
38338;SDS011;37117;50.050;19.924;2022-11-23T04:47:28;53.70;;;34.70;;
38338;SDS011;37117;50.050;19.924;2022-11-23T04:52:31;56.80;;;34.20;;
38338;SDS011;37117;50.050;19.924;2022-11-23T04:55:04;59.00;;;35.00;;
38338;SDS011;37117;50.050;19.924;2022-11-23T04:57:38;59.30;;;35.10;;
38338;SDS011;37117;50.050;19.924;2022-11-23T05:00:09;60.10;;;37.30;;
38338;SDS011;37117;50.050;19.924;2022-11-23T05:02:40;55.10;;;31.60;;
38338;SDS011;37117;50.050;19.924;2022-11-23T05:05:20;58.00;;;33.80;;
38338;SDS011;37117;50.050;19.924;2022-11-23T05:07:50;61.00;;;35.60;;
38338;SDS011;37117;50.050;19.924;2022-11-23T05:10:22;57.00;;;32.00;;
38338;SDS011;37117;50.050;19.924;2022-11-23T05:12:57;58.10;;;33.60;;
38338;SDS011;37117;50.050;19.924;2022-11-23T05:15:30;60.00;;;33.00;;
38338;SDS011;37117;50.050;19.924;2022-11-23T05:18:01;63.60;;;33.90;;
38338;SDS011;37117;50.050;19.924;2022-11-23T05:20:32;58.90;;;32.80;;
38338;SDS011;37117;50.050;19.924;2022-11-23T05:23:03;59.90;;;33.70;;
38338;SDS011;37117;50.050;19.924;2022-11-23T05:25:35;57.50;;;33.10;;
38338;SDS011;37117;50.050;19.924;2022-11-23T05:28:09;56.80;;;32.70;;
38338;SDS011;37117;50.050;19.924;2022-11-23T05:31:03;54.20;;;29.80;;
38338;SDS011;37117;50.050;19.924;2022-11-23T05:33:34;59.10;;;30.40;;
38338;SDS011;37117;50.050;19.924;2022-11-23T05:36:06;54.20;;;28.90;;
38338;SDS011;37117;50.050;19.924;2022-11-23T05:38:39;50.70;;;29.00;;
38338;SDS011;37117;50.050;19.924;2022-11-23T05:41:19;56.00;;;28.70;;
38338;SDS011;37117;50.050;19.924;2022-11-23T05:43:51;60.00;;;32.40;;
38338;SDS011;37117;50.050;19.924;2022-11-23T05:46:25;53.50;;;31.10;;
38338;SDS011;37117;50.050;19.924;2022-11-23T05:48:56;54.60;;;28.90;;
38338;SDS011;37117;50.050;19.924;2022-11-23T05:51:31;45.70;;;26.60;;
38338;SDS011;37117;50.050;19.924;2022-11-23T05:54:02;49.00;;;25.90;;
38338;SDS011;37117;50.050;19.924;2022-11-23T05:56:39;46.10;;;24.90;;
38338;SDS011;37117;50.050;19.924;2022-11-23T05:59:19;49.90;;;26.70;;
38338;SDS011;37117;50.050;19.924;2022-11-23T06:01:53;42.90;;;24.20;;
38338;SDS011;37117;50.050;19.924;2022-11-23T06:04:28;40.20;;;22.60;;
38338;SDS011;37117;50.050;19.924;2022-11-23T06:06:59;41.40;;;23.70;;
38338;SDS011;37117;50.050;19.924;2022-11-23T06:09:37;41.80;;;22.70;;
38338;SDS011;37117;50.050;19.924;2022-11-23T06:12:10;39.40;;;22.20;;
38338;SDS011;37117;50.050;19.924;2022-11-23T06:14:41;36.80;;;20.10;;
38338;SDS011;37117;50.050;19.924;2022-11-23T06:17:12;33.80;;;18.80;;
38338;SDS011;37117;50.050;19.924;2022-11-23T06:19:45;35.10;;;22.30;;
38338;SDS011;37117;50.050;19.924;2022-11-23T06:22:16;39.00;;;23.40;;
38338;SDS011;37117;50.050;19.924;2022-11-23T06:24:55;35.80;;;19.50;;
38338;SDS011;37117;50.050;19.924;2022-11-23T06:27:34;36.50;;;19.70;;
38338;SDS011;37117;50.050;19.924;2022-11-23T06:30:11;38.10;;;22.10;;
38338;SDS011;37117;50.050;19.924;2022-11-23T06:32:42;35.60;;;20.40;;
38338;SDS011;37117;50.050;19.924;2022-11-23T06:35:13;38.80;;;18.70;;
38338;SDS011;37117;50.050;19.924;2022-11-23T06:37:46;38.60;;;20.90;;
38338;SDS011;37117;50.050;19.924;2022-11-23T06:40:17;33.30;;;19.30;;
38338;SDS011;37117;50.050;19.924;2022-11-23T06:42:48;29.00;;;17.60;;
38338;SDS011;37117;50.050;19.924;2022-11-23T06:45:23;36.10;;;17.60;;
38338;SDS011;37117;50.050;19.924;2022-11-23T06:47:54;35.30;;;18.90;;
38338;SDS011;37117;50.050;19.924;2022-11-23T06:50:26;37.40;;;20.70;;
38338;SDS011;37117;50.050;19.924;2022-11-23T06:52:57;36.10;;;19.70;;
38338;SDS011;37117;50.050;19.924;2022-11-23T06:55:35;34.80;;;20.80;;
38338;SDS011;37117;50.050;19.924;2022-11-23T06:58:06;34.30;;;20.50;;
38338;SDS011;37117;50.050;19.924;2022-11-23T07:00:37;30.50;;;16.30;;
38338;SDS011;37117;50.050;19.924;2022-11-23T07:03:10;43.40;;;21.90;;
38338;SDS011;37117;50.050;19.924;2022-11-23T07:05:46;31.10;;;20.30;;
38338;SDS011;37117;50.050;19.924;2022-11-23T07:08:17;38.30;;;20.00;;
38338;SDS011;37117;50.050;19.924;2022-11-23T07:10:47;31.30;;;17.70;;
38338;SDS011;37117;50.050;19.924;2022-11-23T07:13:18;32.90;;;18.80;;
38338;SDS011;37117;50.050;19.924;2022-11-23T07:15:48;34.60;;;19.30;;
38338;SDS011;37117;50.050;19.924;2022-11-23T07:18:19;29.30;;;16.40;;
38338;SDS011;37117;50.050;19.924;2022-11-23T07:20:56;27.90;;;15.80;;
38338;SDS011;37117;50.050;19.924;2022-11-23T07:23:27;27.60;;;16.00;;
38338;SDS011;37117;50.050;19.924;2022-11-23T07:25:57;25.10;;;13.80;;
38338;SDS011;37117;50.050;19.924;2022-11-23T07:28:28;29.30;;;16.30;;
38338;SDS011;37117;50.050;19.924;2022-11-23T07:30:59;28.90;;;15.40;;
38338;SDS011;37117;50.050;19.924;2022-11-23T07:33:31;26.70;;;14.90;;
38338;SDS011;37117;50.050;19.924;2022-11-23T07:36:02;30.40;;;16.30;;
38338;SDS011;37117;50.050;19.924;2022-11-23T07:38:33;30.60;;;16.90;;
38338;SDS011;37117;50.050;19.924;2022-11-23T07:41:05;28.00;;;16.40;;
38338;SDS011;37117;50.050;19.924;2022-11-23T07:43:46;32.40;;;17.60;;
38338;SDS011;37117;50.050;19.924;2022-11-23T07:46:17;36.40;;;18.30;;
38338;SDS011;37117;50.050;19.924;2022-11-23T07:48:47;30.00;;;16.90;;
38338;SDS011;37117;50.050;19.924;2022-11-23T07:51:18;36.90;;;20.30;;
38338;SDS011;37117;50.050;19.924;2022-11-23T07:53:49;35.30;;;19.80;;
38338;SDS011;37117;50.050;19.924;2022-11-23T07:56:19;39.10;;;20.10;;
38338;SDS011;37117;50.050;19.924;2022-11-23T07:58:50;27.50;;;15.60;;
38338;SDS011;37117;50.050;19.924;2022-11-23T08:01:21;40.20;;;20.20;;
38338;SDS011;37117;50.050;19.924;2022-11-23T08:03:51;34.00;;;19.30;;
38338;SDS011;37117;50.050;19.924;2022-11-23T08:06:22;33.50;;;18.80;;
38338;SDS011;37117;50.050;19.924;2022-11-23T08:08:53;32.00;;;18.80;;
38338;SDS011;37117;50.050;19.924;2022-11-23T08:11:24;36.80;;;19.00;;
38338;SDS011;37117;50.050;19.924;2022-11-23T08:13:54;35.60;;;18.00;;
38338;SDS011;37117;50.050;19.924;2022-11-23T08:16:25;38.00;;;21.20;;
38338;SDS011;37117;50.050;19.924;2022-11-23T08:18:55;39.10;;;21.20;;
38338;SDS011;37117;50.050;19.924;2022-11-23T08:21:26;39.40;;;19.30;;
38338;SDS011;37117;50.050;19.924;2022-11-23T08:23:57;40.20;;;20.10;;
38338;SDS011;37117;50.050;19.924;2022-11-23T08:26:28;38.40;;;20.50;;
38338;SDS011;37117;50.050;19.924;2022-11-23T08:28:59;37.80;;;18.80;;
38338;SDS011;37117;50.050;19.924;2022-11-23T08:31:29;37.00;;;21.10;;
38338;SDS011;37117;50.050;19.924;2022-11-23T08:34:00;37.70;;;20.60;;
38338;SDS011;37117;50.050;19.924;2022-11-23T08:36:32;40.60;;;20.00;;
38338;SDS011;37117;50.050;19.924;2022-11-23T08:39:03;40.50;;;20.90;;
38338;SDS011;37117;50.050;19.924;2022-11-23T08:41:34;41.30;;;21.50;;
38338;SDS011;37117;50.050;19.924;2022-11-23T08:44:05;38.30;;;20.20;;
38338;SDS011;37117;50.050;19.924;2022-11-23T08:46:36;35.60;;;18.90;;
38338;SDS011;37117;50.050;19.924;2022-11-23T08:49:07;43.00;;;21.00;;
38338;SDS011;37117;50.050;19.924;2022-11-23T08:51:38;43.00;;;21.10;;
38338;SDS011;37117;50.050;19.924;2022-11-23T09:03:37;43.40;;;22.50;;
38338;SDS011;37117;50.050;19.924;2022-11-23T09:06:08;50.40;;;25.60;;
38338;SDS011;37117;50.050;19.924;2022-11-23T09:08:39;44.30;;;24.50;;
38338;SDS011;37117;50.050;19.924;2022-11-23T09:11:11;47.20;;;24.80;;
38338;SDS011;37117;50.050;19.924;2022-11-23T09:13:42;47.80;;;24.20;;
38338;SDS011;37117;50.050;19.924;2022-11-23T09:16:12;48.40;;;26.70;;
38338;SDS011;37117;50.050;19.924;2022-11-23T09:18:43;44.40;;;24.10;;
38338;SDS011;37117;50.050;19.924;2022-11-23T09:21:14;42.50;;;23.90;;
38338;SDS011;37117;50.050;19.924;2022-11-23T09:23:45;44.60;;;25.30;;
38338;SDS011;37117;50.050;19.924;2022-11-23T09:26:16;44.90;;;25.60;;
38338;SDS011;37117;50.050;19.924;2022-11-23T09:28:47;43.30;;;24.50;;
38338;SDS011;37117;50.050;19.924;2022-11-23T09:31:17;43.40;;;25.10;;
38338;SDS011;37117;50.050;19.924;2022-11-23T09:33:50;44.00;;;24.50;;
38338;SDS011;37117;50.050;19.924;2022-11-23T09:36:21;43.20;;;23.80;;
38338;SDS011;37117;50.050;19.924;2022-11-23T09:38:52;44.20;;;24.50;;
38338;SDS011;37117;50.050;19.924;2022-11-23T09:44:17;45.20;;;23.20;;
38338;SDS011;37117;50.050;19.924;2022-11-23T09:46:53;37.50;;;22.70;;
38338;SDS011;37117;50.050;19.924;2022-11-23T09:49:27;42.40;;;24.50;;
38338;SDS011;37117;50.050;19.924;2022-11-23T09:52:01;39.00;;;23.00;;
38338;SDS011;37117;50.050;19.924;2022-11-23T09:54:33;39.70;;;23.50;;
38338;SDS011;37117;50.050;19.924;2022-11-23T09:57:08;40.00;;;23.10;;
38338;SDS011;37117;50.050;19.924;2022-11-23T10:02:13;39.40;;;23.20;;
38338;SDS011;37117;50.050;19.924;2022-11-23T10:04:47;41.10;;;24.20;;
38338;SDS011;37117;50.050;19.924;2022-11-23T10:07:34;36.50;;;21.70;;
38338;SDS011;37117;50.050;19.924;2022-11-23T10:10:12;35.00;;;22.20;;
38338;SDS011;37117;50.050;19.924;2022-11-23T10:12:48;35.80;;;20.50;;
38338;SDS011;37117;50.050;19.924;2022-11-23T10:15:22;36.60;;;22.90;;
38338;SDS011;37117;50.050;19.924;2022-11-23T10:18:00;40.40;;;24.20;;
38338;SDS011;37117;50.050;19.924;2022-11-23T10:20:46;40.90;;;21.40;;
38338;SDS011;37117;50.050;19.924;2022-11-23T10:23:21;45.20;;;26.90;;
38338;SDS011;37117;50.050;19.924;2022-11-23T10:25:56;41.40;;;24.90;;
38338;SDS011;37117;50.050;19.924;2022-11-23T10:28:28;36.00;;;23.10;;
38338;SDS011;37117;50.050;19.924;2022-11-23T10:31:03;36.20;;;23.60;;
38338;SDS011;37117;50.050;19.924;2022-11-23T10:33:37;40.20;;;23.50;;
38338;SDS011;37117;50.050;19.924;2022-11-23T10:38:39;40.70;;;23.30;;
38338;SDS011;37117;50.050;19.924;2022-11-23T10:41:11;51.60;;;25.40;;
38338;SDS011;37117;50.050;19.924;2022-11-23T10:43:43;38.60;;;24.40;;
38338;SDS011;37117;50.050;19.924;2022-11-23T10:46:28;41.30;;;23.30;;
38338;SDS011;37117;50.050;19.924;2022-11-23T10:49:12;41.00;;;21.90;;
38338;SDS011;37117;50.050;19.924;2022-11-23T10:51:51;37.70;;;24.20;;
38338;SDS011;37117;50.050;19.924;2022-11-23T10:54:23;43.30;;;22.90;;
38338;SDS011;37117;50.050;19.924;2022-11-23T10:56:56;38.30;;;23.30;;
38338;SDS011;37117;50.050;19.924;2022-11-23T10:59:29;40.00;;;24.30;;
38338;SDS011;37117;50.050;19.924;2022-11-23T11:02:00;44.80;;;23.30;;
38338;SDS011;37117;50.050;19.924;2022-11-23T11:04:31;34.40;;;19.90;;
38338;SDS011;37117;50.050;19.924;2022-11-23T11:07:18;38.30;;;19.10;;
38338;SDS011;37117;50.050;19.924;2022-11-23T11:09:50;37.60;;;21.80;;
38338;SDS011;37117;50.050;19.924;2022-11-23T11:12:21;32.30;;;20.50;;
38338;SDS011;37117;50.050;19.924;2022-11-23T11:14:56;35.20;;;23.30;;
38338;SDS011;37117;50.050;19.924;2022-11-23T11:17:38;45.70;;;22.80;;
38338;SDS011;37117;50.050;19.924;2022-11-23T11:20:28;36.30;;;20.80;;
38338;SDS011;37117;50.050;19.924;2022-11-23T11:23:00;40.50;;;21.60;;
38338;SDS011;37117;50.050;19.924;2022-11-23T11:25:33;34.60;;;20.90;;
38338;SDS011;37117;50.050;19.924;2022-11-23T11:28:05;42.80;;;21.90;;
38338;SDS011;37117;50.050;19.924;2022-11-23T11:30:49;37.60;;;21.80;;
38338;SDS011;37117;50.050;19.924;2022-11-23T11:33:27;41.30;;;22.80;;
38338;SDS011;37117;50.050;19.924;2022-11-23T11:36:04;37.70;;;21.50;;
38338;SDS011;37117;50.050;19.924;2022-11-23T11:38:35;41.50;;;22.00;;
38338;SDS011;37117;50.050;19.924;2022-11-23T11:41:07;37.60;;;20.80;;
38338;SDS011;37117;50.050;19.924;2022-11-23T11:43:39;46.60;;;21.20;;
38338;SDS011;37117;50.050;19.924;2022-11-23T11:46:11;38.40;;;21.80;;
38338;SDS011;37117;50.050;19.924;2022-11-23T11:49:02;38.90;;;21.90;;
38338;SDS011;37117;50.050;19.924;2022-11-23T11:51:35;40.40;;;21.80;;
38338;SDS011;37117;50.050;19.924;2022-11-23T11:54:10;37.50;;;20.40;;
38338;SDS011;37117;50.050;19.924;2022-11-23T11:56:43;37.20;;;20.60;;
38338;SDS011;37117;50.050;19.924;2022-11-23T11:59:15;35.20;;;20.00;;
38338;SDS011;37117;50.050;19.924;2022-11-23T12:01:53;35.60;;;21.70;;
38338;SDS011;37117;50.050;19.924;2022-11-23T12:04:26;43.60;;;22.30;;
38338;SDS011;37117;50.050;19.924;2022-11-23T12:07:01;35.60;;;20.20;;
38338;SDS011;37117;50.050;19.924;2022-11-23T12:09:36;41.90;;;21.50;;
38338;SDS011;37117;50.050;19.924;2022-11-23T12:12:11;40.80;;;22.60;;
38338;SDS011;37117;50.050;19.924;2022-11-23T12:14:41;39.10;;;22.70;;
38338;SDS011;37117;50.050;19.924;2022-11-23T12:17:18;42.20;;;24.40;;
38338;SDS011;37117;50.050;19.924;2022-11-23T12:20:03;39.20;;;21.80;;
38338;SDS011;37117;50.050;19.924;2022-11-23T12:22:40;37.70;;;22.10;;
38338;SDS011;37117;50.050;19.924;2022-11-23T12:25:18;35.10;;;19.20;;
38338;SDS011;37117;50.050;19.924;2022-11-23T12:27:54;35.80;;;21.50;;
38338;SDS011;37117;50.050;19.924;2022-11-23T12:30:26;46.30;;;24.40;;
38338;SDS011;37117;50.050;19.924;2022-11-23T12:33:11;34.60;;;19.50;;
38338;SDS011;37117;50.050;19.924;2022-11-23T12:35:47;39.90;;;21.50;;
38338;SDS011;37117;50.050;19.924;2022-11-23T12:38:25;39.60;;;22.60;;
38338;SDS011;37117;50.050;19.924;2022-11-23T12:41:04;41.00;;;23.50;;
38338;SDS011;37117;50.050;19.924;2022-11-23T12:43:40;50.70;;;22.20;;
38338;SDS011;37117;50.050;19.924;2022-11-23T12:46:15;45.30;;;22.40;;
38338;SDS011;37117;50.050;19.924;2022-11-23T12:48:51;41.40;;;23.00;;
38338;SDS011;37117;50.050;19.924;2022-11-23T12:51:28;43.70;;;24.20;;
38338;SDS011;37117;50.050;19.924;2022-11-23T12:54:10;42.10;;;23.20;;
38338;SDS011;37117;50.050;19.924;2022-11-23T12:56:57;38.70;;;22.60;;
38338;SDS011;37117;50.050;19.924;2022-11-23T12:59:33;35.80;;;21.50;;
38338;SDS011;37117;50.050;19.924;2022-11-23T13:02:07;42.10;;;25.20;;
38338;SDS011;37117;50.050;19.924;2022-11-23T13:04:49;40.00;;;22.50;;
38338;SDS011;37117;50.050;19.924;2022-11-23T13:07:35;39.80;;;22.70;;
38338;SDS011;37117;50.050;19.924;2022-11-23T13:10:25;44.10;;;23.10;;
38338;SDS011;37117;50.050;19.924;2022-11-23T13:13:09;40.10;;;21.90;;
38338;SDS011;37117;50.050;19.924;2022-11-23T13:15:49;35.90;;;21.10;;
38338;SDS011;37117;50.050;19.924;2022-11-23T13:18:25;43.40;;;25.00;;
38338;SDS011;37117;50.050;19.924;2022-11-23T13:21:06;41.20;;;23.00;;
38338;SDS011;37117;50.050;19.924;2022-11-23T13:23:38;38.40;;;22.40;;
38338;SDS011;37117;50.050;19.924;2022-11-23T13:26:13;40.50;;;23.00;;
38338;SDS011;37117;50.050;19.924;2022-11-23T13:28:44;39.90;;;21.70;;
38338;SDS011;37117;50.050;19.924;2022-11-23T13:31:19;38.30;;;22.20;;
38338;SDS011;37117;50.050;19.924;2022-11-23T13:33:52;40.00;;;22.50;;
38338;SDS011;37117;50.050;19.924;2022-11-23T13:36:38;42.80;;;24.80;;
38338;SDS011;37117;50.050;19.924;2022-11-23T13:42:19;43.70;;;23.70;;
38338;SDS011;37117;50.050;19.924;2022-11-23T13:44:50;40.00;;;23.30;;
38338;SDS011;37117;50.050;19.924;2022-11-23T13:47:40;38.30;;;19.20;;
38338;SDS011;37117;50.050;19.924;2022-11-23T13:50:16;37.20;;;22.10;;
38338;SDS011;37117;50.050;19.924;2022-11-23T13:52:48;34.30;;;21.00;;
38338;SDS011;37117;50.050;19.924;2022-11-23T13:55:21;40.20;;;22.90;;
38338;SDS011;37117;50.050;19.924;2022-11-23T14:00:47;46.20;;;25.00;;
38338;SDS011;37117;50.050;19.924;2022-11-23T14:06:06;39.10;;;22.50;;
38338;SDS011;37117;50.050;19.924;2022-11-23T14:08:39;38.40;;;22.80;;
38338;SDS011;37117;50.050;19.924;2022-11-23T14:11:11;39.00;;;23.00;;
38338;SDS011;37117;50.050;19.924;2022-11-23T14:13:47;36.40;;;21.90;;
38338;SDS011;37117;50.050;19.924;2022-11-23T14:16:24;42.30;;;26.10;;
38338;SDS011;37117;50.050;19.924;2022-11-23T14:19:01;44.00;;;23.40;;
38338;SDS011;37117;50.050;19.924;2022-11-23T14:21:37;44.70;;;26.90;;
38338;SDS011;37117;50.050;19.924;2022-11-23T14:24:20;41.40;;;25.10;;
38338;SDS011;37117;50.050;19.924;2022-11-23T14:27:00;45.50;;;25.90;;
38338;SDS011;37117;50.050;19.924;2022-11-23T14:30:05;35.10;;;21.30;;
38338;SDS011;37117;50.050;19.924;2022-11-23T14:32:45;43.00;;;23.70;;
38338;SDS011;37117;50.050;19.924;2022-11-23T14:35:21;38.80;;;24.50;;
38338;SDS011;37117;50.050;19.924;2022-11-23T14:40:50;35.70;;;23.20;;
38338;SDS011;37117;50.050;19.924;2022-11-23T14:43:23;36.60;;;20.90;;
38338;SDS011;37117;50.050;19.924;2022-11-23T14:46:00;36.00;;;21.80;;
38338;SDS011;37117;50.050;19.924;2022-11-23T14:48:32;39.10;;;22.50;;
38338;SDS011;37117;50.050;19.924;2022-11-23T14:51:04;41.20;;;24.40;;
38338;SDS011;37117;50.050;19.924;2022-11-23T14:53:38;42.40;;;25.90;;
38338;SDS011;37117;50.050;19.924;2022-11-23T14:56:22;36.60;;;21.30;;
38338;SDS011;37117;50.050;19.924;2022-11-23T14:58:58;38.00;;;21.60;;
38338;SDS011;37117;50.050;19.924;2022-11-23T15:01:30;35.10;;;21.40;;
38338;SDS011;37117;50.050;19.924;2022-11-23T15:04:07;37.80;;;19.90;;
38338;SDS011;37117;50.050;19.924;2022-11-23T15:06:40;40.90;;;23.50;;
38338;SDS011;37117;50.050;19.924;2022-11-23T15:09:16;38.30;;;24.80;;
38338;SDS011;37117;50.050;19.924;2022-11-23T15:11:49;41.80;;;22.90;;
38338;SDS011;37117;50.050;19.924;2022-11-23T15:14:25;39.90;;;23.30;;
38338;SDS011;37117;50.050;19.924;2022-11-23T15:17:08;36.40;;;22.80;;
38338;SDS011;37117;50.050;19.924;2022-11-23T15:19:41;39.20;;;24.00;;
38338;SDS011;37117;50.050;19.924;2022-11-23T15:22:14;39.40;;;22.40;;